createdAt,value
2019-03-30T00:00:26.266Z,3.18
2019-03-30T00:01:26.312Z,3.24
2019-03-30T00:02:26.203Z,3.24
2019-03-30T00:03:26.172Z,3.33
2019-03-30T00:04:26.142Z,3.28
2019-03-30T00:05:26.110Z,3.23
2019-03-30T00:06:26.080Z,3.08
2019-03-30T00:07:26.047Z,3.15
2019-03-30T00:08:26.017Z,3.18
2019-03-30T00:09:25.985Z,3.14
2019-03-30T00:10:25.955Z,3.06
2019-03-30T00:11:25.976Z,3.13
2019-03-30T00:12:25.895Z,3.03
2019-03-30T00:13:25.872Z,3.14
2019-03-30T00:14:25.831Z,3.18
2019-03-30T00:15:25.800Z,3.17
2019-03-30T00:16:25.770Z,3.15
2019-03-30T00:17:25.738Z,3.18
2019-03-30T00:18:25.708Z,3.03
2019-03-30T00:19:34.890Z,2.97
2019-03-30T00:20:25.646Z,3.00
2019-03-30T00:21:25.615Z,2.95
2019-03-30T00:22:25.584Z,3.06
2019-03-30T00:23:25.553Z,3.18
2019-03-30T00:24:25.522Z,3.14
2019-03-30T00:25:25.490Z,3.08
2019-03-30T00:26:25.459Z,3.02
2019-03-30T00:27:25.433Z,2.84
2019-03-30T00:28:25.399Z,2.89
2019-03-30T00:29:25.366Z,2.89
2019-03-30T00:30:25.336Z,2.72
2019-03-30T00:31:25.305Z,2.63
2019-03-30T00:32:25.274Z,2.72
2019-03-30T00:33:25.240Z,2.75
2019-03-30T00:34:25.210Z,2.87
2019-03-30T00:35:25.183Z,2.79
2019-03-30T00:36:25.149Z,2.90
2019-03-30T00:37:25.118Z,3.05
2019-03-30T00:38:25.086Z,3.02
2019-03-30T00:39:25.058Z,3.11
2019-03-30T00:40:25.024Z,3.18
2019-03-30T00:41:24.996Z,3.13
2019-03-30T00:42:24.960Z,3.05
2019-03-30T00:43:24.929Z,2.97
2019-03-30T00:44:24.899Z,3.10
2019-03-30T00:45:24.868Z,3.06
2019-03-30T00:46:24.836Z,3.06
2019-03-30T00:47:24.802Z,3.03
2019-03-30T00:48:24.773Z,3.08
2019-03-30T00:49:24.741Z,2.99
2019-03-30T00:50:24.710Z,2.96
2019-03-30T00:51:24.685Z,2.92
2019-03-30T00:52:24.647Z,2.87
2019-03-30T00:53:24.618Z,2.92
2019-03-30T00:54:24.584Z,2.90
2019-03-30T00:55:24.554Z,2.87
2019-03-30T00:56:24.523Z,2.92
2019-03-30T00:57:24.489Z,2.89
2019-03-30T00:58:25.791Z,2.95
2019-03-30T00:59:24.427Z,2.93
2019-03-30T01:00:24.397Z,3.03
2019-03-30T01:01:24.363Z,3.10
2019-03-30T01:02:24.333Z,3.20
2019-03-30T01:03:24.301Z,3.18
2019-03-30T01:04:24.271Z,3.08
2019-03-30T01:05:24.238Z,3.00
2019-03-30T01:06:24.207Z,3.03
2019-03-30T01:07:24.175Z,3.06
2019-03-30T01:08:24.144Z,3.14
2019-03-30T01:09:24.111Z,3.10
2019-03-30T01:10:24.081Z,3.11
2019-03-30T01:11:24.049Z,3.10
2019-03-30T01:12:24.016Z,3.10
2019-03-30T01:13:23.984Z,3.08
2019-03-30T01:14:23.958Z,3.03
2019-03-30T01:15:23.922Z,2.97
2019-03-30T01:16:23.890Z,3.03
2019-03-30T01:17:23.859Z,3.11
2019-03-30T01:18:23.828Z,3.10
2019-03-30T01:19:23.797Z,3.08
2019-03-30T01:20:23.765Z,3.02
2019-03-30T01:21:23.733Z,3.08
2019-03-30T01:22:23.701Z,3.02
2019-03-30T01:23:23.668Z,2.99
2019-03-30T01:24:23.638Z,2.92
2019-03-30T01:25:23.606Z,2.89
2019-03-30T01:26:23.574Z,2.90
2019-03-30T01:27:23.543Z,2.84
2019-03-30T01:28:23.513Z,2.82
2019-03-30T01:29:23.480Z,2.71
2019-03-30T01:30:23.805Z,2.79
2019-03-30T01:31:23.415Z,2.77
2019-03-30T01:32:23.387Z,2.71
2019-03-30T01:33:23.353Z,2.66
2019-03-30T01:34:23.322Z,2.59
2019-03-30T01:35:23.331Z,2.57
2019-03-30T01:36:23.259Z,2.57
2019-03-30T01:37:23.233Z,2.52
2019-03-30T01:38:23.196Z,2.53
2019-03-30T01:39:23.207Z,2.56
2019-03-30T01:40:23.131Z,2.53
2019-03-30T01:41:23.098Z,2.61
2019-03-30T01:42:23.068Z,2.64
2019-03-30T01:43:23.036Z,2.64
2019-03-30T01:44:23.006Z,2.61
2019-03-30T01:45:22.973Z,2.57
2019-03-30T01:46:22.942Z,2.56
2019-03-30T01:47:22.910Z,2.56
2019-03-30T01:48:22.878Z,2.46
2019-03-30T01:49:22.848Z,2.53
2019-03-30T01:50:22.813Z,2.60
2019-03-30T01:51:22.782Z,2.56
2019-03-30T01:52:22.751Z,2.43
2019-03-30T01:53:22.717Z,2.39
2019-03-30T01:54:22.687Z,2.57
2019-03-30T01:55:22.655Z,2.48
2019-03-30T01:56:22.623Z,2.48
2019-03-30T01:57:22.591Z,2.48
2019-03-30T01:58:22.558Z,2.59
2019-03-30T01:59:22.528Z,2.45
2019-03-30T02:00:22.496Z,2.59
2019-03-30T02:01:22.463Z,2.43
2019-03-30T02:02:22.433Z,2.48
2019-03-30T02:03:22.400Z,2.52
2019-03-30T02:04:22.368Z,2.45
2019-03-30T02:05:22.336Z,2.43
2019-03-30T02:06:22.304Z,2.41
2019-03-30T02:07:22.276Z,2.36
2019-03-30T02:08:22.245Z,2.42
2019-03-30T02:09:22.209Z,2.34
2019-03-30T02:10:22.180Z,2.38
2019-03-30T02:11:22.147Z,2.38
2019-03-30T02:12:22.192Z,2.35
2019-03-30T02:13:22.082Z,2.38
2019-03-30T02:14:22.051Z,2.36
2019-03-30T02:15:22.020Z,2.39
2019-03-30T02:16:21.988Z,2.27
2019-03-30T02:17:21.955Z,2.24
2019-03-30T02:18:21.924Z,2.23
2019-03-30T02:19:21.893Z,2.28
2019-03-30T02:20:30.623Z,2.17
2019-03-30T02:21:21.827Z,2.14
2019-03-30T02:22:21.796Z,2.09
2019-03-30T02:23:21.766Z,2.24
2019-03-30T02:24:21.733Z,2.16
2019-03-30T02:25:21.701Z,2.28
2019-03-30T02:26:21.669Z,2.30
2019-03-30T02:27:21.637Z,2.30
2019-03-30T02:28:21.604Z,2.38
2019-03-30T02:29:21.573Z,2.30
2019-03-30T02:30:21.542Z,2.20
2019-03-30T02:31:21.512Z,2.34
2019-03-30T02:32:21.478Z,2.31
2019-03-30T02:33:21.451Z,2.28
2019-03-30T02:34:21.414Z,2.25
2019-03-30T02:35:21.383Z,2.25
2019-03-30T02:36:21.350Z,2.20
2019-03-30T02:37:21.319Z,2.27
2019-03-30T02:38:21.293Z,2.18
2019-03-30T02:39:21.253Z,2.09
2019-03-30T02:40:21.226Z,2.07
2019-03-30T02:41:21.191Z,2.10
2019-03-30T02:42:21.157Z,1.91
2019-03-30T02:43:21.126Z,1.98
2019-03-30T02:44:21.094Z,1.91
2019-03-30T02:45:21.068Z,1.99
2019-03-30T02:46:21.030Z,1.81
2019-03-30T02:47:20.997Z,1.88
2019-03-30T02:48:20.969Z,1.76
2019-03-30T02:49:20.934Z,1.70
2019-03-30T02:50:20.911Z,1.70
2019-03-30T02:51:20.871Z,1.73
2019-03-30T02:52:20.838Z,1.70
2019-03-30T02:53:20.805Z,1.66
2019-03-30T02:54:20.775Z,1.68
2019-03-30T02:55:20.743Z,1.72
2019-03-30T02:56:20.713Z,1.84
2019-03-30T02:57:20.679Z,1.84
2019-03-30T02:58:20.647Z,1.77
2019-03-30T02:59:20.624Z,1.73
2019-03-30T03:00:20.582Z,1.76
2019-03-30T03:01:20.556Z,1.73
2019-03-30T03:02:20.518Z,1.79
2019-03-30T03:03:20.488Z,1.59
2019-03-30T03:04:20.455Z,1.63
2019-03-30T03:05:20.423Z,1.66
2019-03-30T03:06:20.391Z,1.60
2019-03-30T03:07:20.360Z,1.70
2019-03-30T03:08:20.326Z,1.63
2019-03-30T03:09:20.297Z,1.68
2019-03-30T03:10:20.275Z,1.72
2019-03-30T03:11:20.235Z,1.66
2019-03-30T03:12:20.198Z,1.68
2019-03-30T03:13:20.165Z,1.65
2019-03-30T03:14:20.139Z,1.54
2019-03-30T03:15:20.103Z,1.58
2019-03-30T03:16:20.070Z,1.63
2019-03-30T03:17:20.036Z,1.54
2019-03-30T03:18:20.006Z,1.54
2019-03-30T03:19:19.973Z,1.58
2019-03-30T03:20:19.941Z,1.48
2019-03-30T03:21:19.908Z,1.47
2019-03-30T03:22:19.878Z,1.36
2019-03-30T03:23:19.845Z,1.36
2019-03-30T03:24:19.813Z,1.27
2019-03-30T03:25:19.780Z,1.26
2019-03-30T03:26:19.749Z,1.15
2019-03-30T03:27:19.716Z,1.26
2019-03-30T03:28:19.683Z,1.22
2019-03-30T03:29:19.652Z,1.26
2019-03-30T03:30:19.622Z,1.30
2019-03-30T03:31:19.588Z,1.24
2019-03-30T03:32:19.571Z,1.40
2019-03-30T03:33:19.523Z,1.36
2019-03-30T03:34:19.510Z,1.45
2019-03-30T03:35:19.460Z,1.52
2019-03-30T03:36:19.427Z,1.58
2019-03-30T03:37:19.401Z,1.52
2019-03-30T03:38:19.362Z,1.47
2019-03-30T03:39:19.331Z,1.48
2019-03-30T03:40:19.304Z,1.45
2019-03-30T03:41:19.263Z,1.51
2019-03-30T03:42:19.253Z,1.44
2019-03-30T03:43:19.200Z,1.48
2019-03-30T03:44:19.168Z,1.62
2019-03-30T03:45:19.138Z,1.59
2019-03-30T03:46:19.104Z,1.59
2019-03-30T03:47:19.073Z,1.68
2019-03-30T03:48:19.039Z,1.66
2019-03-30T03:49:19.006Z,1.65
2019-03-30T03:50:18.974Z,1.70
2019-03-30T03:51:26.323Z,1.73
2019-03-30T03:52:18.910Z,1.70
2019-03-30T03:53:18.918Z,1.68
2019-03-30T03:54:18.853Z,1.60
2019-03-30T03:55:18.811Z,1.70
2019-03-30T03:56:18.788Z,1.62
2019-03-30T03:57:18.745Z,1.59
2019-03-30T03:58:18.713Z,1.62
2019-03-30T03:59:18.693Z,1.58
2019-03-30T04:00:18.654Z,1.50
2019-03-30T04:01:18.633Z,1.63
2019-03-30T04:02:18.593Z,1.54
2019-03-30T04:03:18.559Z,1.65
2019-03-30T04:04:18.521Z,1.68
2019-03-30T04:05:18.488Z,1.65
2019-03-30T04:06:18.461Z,1.59
2019-03-30T04:07:18.424Z,1.80
2019-03-30T04:08:18.399Z,1.80
2019-03-30T04:09:18.357Z,1.95
2019-03-30T04:10:18.326Z,2.00
2019-03-30T04:11:18.294Z,1.95
2019-03-30T04:12:18.261Z,2.07
2019-03-30T04:13:18.227Z,2.07
2019-03-30T04:14:18.196Z,2.09
2019-03-30T04:15:18.166Z,2.12
2019-03-30T04:16:18.131Z,2.06
2019-03-30T04:17:18.130Z,2.09
2019-03-30T04:18:18.065Z,2.02
2019-03-30T04:19:18.034Z,1.91
2019-03-30T04:20:17.999Z,1.86
2019-03-30T04:21:17.966Z,1.73
2019-03-30T04:22:17.934Z,1.79
2019-03-30T04:23:17.901Z,1.65
2019-03-30T04:24:17.869Z,1.59
2019-03-30T04:25:17.836Z,1.55
2019-03-30T04:26:17.805Z,1.63
2019-03-30T04:27:17.771Z,1.60
2019-03-30T04:28:17.740Z,1.58
2019-03-30T04:29:17.706Z,1.45
2019-03-30T04:30:17.673Z,1.42
2019-03-30T04:31:17.643Z,1.30
2019-03-30T04:32:17.606Z,1.24
2019-03-30T04:33:17.577Z,1.18
2019-03-30T04:34:17.544Z,1.15
2019-03-30T04:35:17.511Z,1.15
2019-03-30T04:36:17.484Z,1.26
2019-03-30T04:37:17.446Z,1.14
2019-03-30T04:38:17.424Z,1.20
2019-03-30T04:39:17.380Z,1.11
2019-03-30T04:40:17.348Z,1.04
2019-03-30T04:41:17.313Z,1.08
2019-03-30T04:42:17.283Z,0.97
2019-03-30T04:43:17.251Z,0.86
2019-03-30T04:44:17.224Z,0.97
2019-03-30T04:45:17.188Z,0.90
2019-03-30T04:46:17.150Z,0.79
2019-03-30T04:47:17.119Z,0.73
2019-03-30T04:48:17.090Z,0.72
2019-03-30T04:49:17.055Z,0.80
2019-03-30T04:50:17.045Z,0.84
2019-03-30T04:51:16.989Z,0.83
2019-03-30T04:52:16.955Z,0.80
2019-03-30T04:53:16.923Z,0.94
2019-03-30T04:54:16.893Z,0.98
2019-03-30T04:55:16.860Z,0.97
2019-03-30T04:56:16.828Z,0.90
2019-03-30T04:57:16.793Z,0.98
2019-03-30T04:58:16.761Z,1.02
2019-03-30T04:59:16.733Z,1.05
2019-03-30T05:00:16.699Z,1.22
2019-03-30T05:01:16.663Z,1.29
2019-03-30T05:02:16.632Z,1.23
2019-03-30T05:03:16.601Z,1.29
2019-03-30T05:04:16.566Z,1.30
2019-03-30T05:05:16.533Z,1.42
2019-03-30T05:06:16.501Z,1.36
2019-03-30T05:07:16.468Z,1.27
2019-03-30T05:08:16.436Z,1.26
2019-03-30T05:09:16.403Z,1.23
2019-03-30T05:10:16.369Z,1.22
2019-03-30T05:11:16.339Z,1.30
2019-03-30T05:12:16.359Z,1.32
2019-03-30T05:13:16.274Z,1.33
2019-03-30T05:14:16.240Z,1.24
2019-03-30T05:15:16.209Z,1.29
2019-03-30T05:16:16.175Z,1.32
2019-03-30T05:17:16.141Z,1.40
2019-03-30T05:18:16.111Z,1.33
2019-03-30T05:19:16.079Z,1.40
2019-03-30T05:20:16.047Z,1.48
2019-03-30T05:21:16.213Z,1.52
2019-03-30T05:22:16.684Z,1.55
2019-03-30T05:23:15.949Z,1.68
2019-03-30T05:24:15.918Z,1.68
2019-03-30T05:25:15.884Z,1.59
2019-03-30T05:26:15.855Z,1.72
2019-03-30T05:27:15.821Z,1.86
2019-03-30T05:28:15.829Z,1.81
2019-03-30T05:29:15.755Z,1.86
2019-03-30T05:30:15.723Z,1.91
2019-03-30T05:31:15.691Z,1.93
2019-03-30T05:32:15.661Z,1.99
2019-03-30T05:33:15.626Z,1.98
2019-03-30T05:34:15.594Z,1.99
2019-03-30T05:35:15.562Z,1.93
2019-03-30T05:36:15.531Z,2.09
2019-03-30T05:37:15.498Z,2.14
2019-03-30T05:38:15.467Z,2.28
2019-03-30T05:39:15.438Z,2.41
2019-03-30T05:40:15.402Z,2.60
2019-03-30T05:41:15.370Z,2.90
2019-03-30T05:42:15.338Z,3.05
2019-03-30T05:43:15.308Z,3.39
2019-03-30T05:44:15.282Z,3.54
2019-03-30T05:45:15.244Z,3.90
2019-03-30T05:46:15.213Z,4.11
2019-03-30T05:47:15.183Z,4.41
2019-03-30T05:48:15.151Z,4.69
2019-03-30T05:49:15.119Z,4.89
2019-03-30T05:50:15.087Z,5.18
2019-03-30T05:51:15.058Z,5.43
2019-03-30T05:52:25.835Z,5.58
2019-03-30T05:53:14.997Z,5.83
2019-03-30T05:54:14.967Z,6.06
2019-03-30T05:55:14.937Z,6.22
2019-03-30T05:56:14.909Z,6.36
2019-03-30T05:57:14.876Z,6.43
2019-03-30T05:58:14.846Z,6.22
2019-03-30T05:59:14.818Z,6.04
2019-03-30T06:00:14.789Z,5.89
2019-03-30T06:01:14.759Z,5.67
2019-03-30T06:02:14.730Z,5.45
2019-03-30T06:03:14.701Z,5.45
2019-03-30T06:04:14.675Z,5.45
2019-03-30T06:05:14.643Z,5.58
2019-03-30T06:06:14.613Z,5.96
2019-03-30T06:07:14.586Z,6.18
2019-03-30T06:08:14.557Z,6.54
2019-03-30T06:09:14.534Z,6.84
2019-03-30T06:10:14.500Z,7.37
2019-03-30T06:11:14.475Z,7.79
2019-03-30T06:12:14.446Z,8.25
2019-03-30T06:13:14.415Z,8.56
2019-03-30T06:14:14.386Z,8.89
2019-03-30T06:15:14.360Z,9.15
2019-03-30T06:16:14.333Z,9.46
2019-03-30T06:17:14.306Z,9.60
2019-03-30T06:18:14.279Z,9.87
2019-03-30T06:19:14.252Z,10.18
2019-03-30T06:20:14.228Z,10.26
2019-03-30T06:21:14.199Z,10.53
2019-03-30T06:22:14.173Z,10.59
2019-03-30T06:23:14.146Z,10.73
2019-03-30T06:24:14.121Z,10.67
2019-03-30T06:25:14.097Z,10.64
2019-03-30T06:26:14.070Z,10.84
2019-03-30T06:27:14.060Z,11.17
2019-03-30T06:28:14.021Z,11.18
2019-03-30T06:29:13.994Z,11.40
2019-03-30T06:30:13.968Z,11.58
2019-03-30T06:31:13.949Z,11.90
2019-03-30T06:32:13.921Z,12.10
2019-03-30T06:33:13.899Z,12.20
2019-03-30T06:34:13.872Z,11.80
2019-03-30T06:35:13.849Z,11.65
2019-03-30T06:36:13.824Z,11.67
2019-03-30T06:37:13.800Z,11.80
2019-03-30T06:38:13.778Z,12.07
2019-03-30T06:39:13.752Z,12.14
2019-03-30T06:40:13.728Z,12.13
2019-03-30T06:41:13.704Z,12.32
2019-03-30T06:42:13.679Z,12.31
2019-03-30T06:43:13.656Z,12.68
2019-03-30T06:44:13.632Z,13.01
2019-03-30T06:45:13.607Z,13.07
2019-03-30T06:46:13.586Z,13.29
2019-03-30T06:47:13.562Z,13.55
2019-03-30T06:48:13.539Z,13.64
2019-03-30T06:49:13.515Z,13.66
2019-03-30T06:50:13.492Z,13.60
2019-03-30T06:51:13.473Z,13.66
2019-03-30T06:52:13.448Z,13.59
2019-03-30T06:53:13.423Z,13.85
2019-03-30T06:54:14.870Z,14.00
2019-03-30T06:55:13.379Z,14.14
2019-03-30T06:56:13.356Z,14.06
2019-03-30T06:57:13.333Z,14.36
2019-03-30T06:58:13.323Z,14.39
2019-03-30T06:59:13.290Z,14.24
2019-03-30T07:00:13.267Z,14.15
2019-03-30T07:01:13.243Z,13.97
2019-03-30T07:02:13.221Z,14.43
2019-03-30T07:03:13.200Z,14.86
2019-03-30T07:04:13.177Z,15.17
2019-03-30T07:05:13.156Z,15.23
2019-03-30T07:06:13.135Z,15.56
2019-03-30T07:07:13.113Z,15.62
2019-03-30T07:08:13.092Z,15.80
2019-03-30T07:09:13.068Z,15.76
2019-03-30T07:10:13.050Z,15.83
2019-03-30T07:11:20.967Z,15.69
2019-03-30T07:12:13.004Z,15.80
2019-03-30T07:13:12.984Z,15.84
2019-03-30T07:14:12.962Z,16.38
2019-03-30T07:15:12.950Z,16.68
2019-03-30T07:16:12.924Z,17.04
2019-03-30T07:17:12.901Z,17.33
2019-03-30T07:18:12.879Z,17.43
2019-03-30T07:19:12.860Z,17.55
2019-03-30T07:20:12.839Z,17.75
2019-03-30T07:21:12.819Z,17.74
2019-03-30T07:22:12.797Z,17.90
2019-03-30T07:23:13.018Z,18.11
2019-03-30T07:24:12.757Z,18.21
2019-03-30T07:25:12.736Z,18.44
2019-03-30T07:26:12.721Z,18.60
2019-03-30T07:27:12.698Z,19.04
2019-03-30T07:28:12.678Z,19.18
2019-03-30T07:29:12.730Z,18.76
2019-03-30T07:30:12.640Z,18.10
2019-03-30T07:31:12.622Z,18.25
2019-03-30T07:32:12.599Z,18.23
2019-03-30T07:33:12.623Z,18.23
2019-03-30T07:34:12.562Z,18.23
2019-03-30T07:35:12.551Z,18.36
2019-03-30T07:36:12.523Z,18.39
2019-03-30T07:37:12.502Z,18.12
2019-03-30T07:38:12.483Z,17.64
2019-03-30T07:39:12.466Z,17.87
2019-03-30T07:40:12.446Z,17.97
2019-03-30T07:41:12.429Z,17.87
2019-03-30T07:42:12.405Z,17.86
2019-03-30T07:43:12.388Z,17.51
2019-03-30T07:44:12.373Z,17.37
2019-03-30T07:45:12.349Z,17.54
2019-03-30T07:46:12.329Z,17.93
2019-03-30T07:47:12.311Z,18.33
2019-03-30T07:48:12.292Z,18.45
2019-03-30T07:49:12.274Z,18.55
2019-03-30T07:50:12.253Z,18.45
2019-03-30T07:51:12.236Z,18.07
2019-03-30T07:52:12.220Z,17.84
2019-03-30T07:53:25.695Z,17.71
2019-03-30T07:54:12.181Z,17.23
2019-03-30T07:55:12.162Z,17.16
2019-03-30T07:56:12.143Z,16.97
2019-03-30T07:57:17.297Z,17.31
2019-03-30T07:58:12.106Z,17.58
2019-03-30T07:59:12.087Z,17.79
2019-03-30T08:00:12.069Z,17.89
2019-03-30T08:01:12.048Z,17.89
2019-03-30T08:02:12.030Z,18.42
2019-03-30T08:03:12.011Z,18.48
2019-03-30T08:04:11.996Z,18.65
2019-03-30T08:05:11.976Z,18.36
2019-03-30T08:06:11.954Z,18.48
2019-03-30T08:07:11.937Z,18.84
2019-03-30T08:08:11.918Z,18.73
2019-03-30T08:09:11.900Z,19.23
2019-03-30T08:10:11.881Z,19.37
2019-03-30T08:11:14.409Z,19.51
2019-03-30T08:12:11.844Z,19.69
2019-03-30T08:13:11.828Z,19.65
2019-03-30T08:14:11.809Z,19.56
2019-03-30T08:15:11.790Z,18.92
2019-03-30T08:16:11.775Z,18.51
2019-03-30T08:17:11.755Z,18.57
2019-03-30T08:18:11.737Z,19.14
2019-03-30T08:19:11.723Z,19.37
2019-03-30T08:20:11.702Z,19.62
2019-03-30T08:21:11.683Z,19.55
2019-03-30T08:22:11.665Z,19.59
2019-03-30T08:23:11.663Z,19.18
2019-03-30T08:24:11.632Z,19.18
2019-03-30T08:25:11.612Z,19.65
2019-03-30T08:26:11.597Z,19.29
2019-03-30T08:27:11.578Z,19.51
2019-03-30T08:28:11.560Z,19.62
2019-03-30T08:29:11.543Z,19.61
2019-03-30T08:30:11.526Z,19.87
2019-03-30T08:31:11.507Z,20.32
2019-03-30T08:32:11.489Z,20.59
2019-03-30T08:33:11.472Z,20.62
2019-03-30T08:34:11.455Z,20.64
2019-03-30T08:35:11.437Z,20.21
2019-03-30T08:36:11.421Z,19.86
2019-03-30T08:37:11.402Z,20.43
2019-03-30T08:38:11.385Z,20.20
2019-03-30T08:39:11.368Z,20.16
2019-03-30T08:40:11.357Z,20.36
2019-03-30T08:41:11.334Z,20.74
2019-03-30T08:42:11.318Z,20.28
2019-03-30T08:43:11.301Z,20.33
2019-03-30T08:44:11.285Z,19.74
2019-03-30T08:45:11.269Z,19.94
2019-03-30T08:46:11.250Z,20.24
2019-03-30T08:47:11.232Z,20.06
2019-03-30T08:48:11.216Z,20.26
2019-03-30T08:49:11.201Z,20.76
2019-03-30T08:50:11.183Z,20.72
2019-03-30T08:51:11.164Z,20.14
2019-03-30T08:52:11.147Z,19.73
2019-03-30T08:53:11.131Z,19.73
2019-03-30T08:54:11.115Z,19.58
2019-03-30T08:55:11.095Z,19.02
2019-03-30T08:56:11.080Z,18.95
2019-03-30T08:57:11.060Z,19.10
2019-03-30T08:58:11.042Z,19.37
2019-03-30T08:59:11.027Z,19.92
2019-03-30T09:00:11.009Z,19.62
2019-03-30T09:01:10.993Z,19.80
2019-03-30T09:02:10.974Z,20.03
2019-03-30T09:03:10.957Z,20.31
2019-03-30T09:04:10.940Z,20.10
2019-03-30T09:05:10.919Z,20.02
2019-03-30T09:06:10.904Z,20.62
2019-03-30T09:07:10.885Z,21.03
2019-03-30T09:08:10.869Z,21.52
2019-03-30T09:09:10.851Z,21.52
2019-03-30T09:10:10.834Z,21.65
2019-03-30T09:11:10.817Z,21.69
2019-03-30T09:12:10.800Z,20.97
2019-03-30T09:13:10.782Z,21.50
2019-03-30T09:14:10.765Z,21.53
2019-03-30T09:15:10.749Z,21.42
2019-03-30T09:16:10.733Z,21.52
2019-03-30T09:17:10.713Z,20.62
2019-03-30T09:18:10.698Z,20.62
2019-03-30T09:19:10.683Z,20.41
2019-03-30T09:20:10.665Z,20.77
2019-03-30T09:21:10.650Z,20.79
2019-03-30T09:22:10.646Z,20.16
2019-03-30T09:23:10.613Z,19.47
2019-03-30T09:24:10.659Z,20.48
2019-03-30T09:25:10.577Z,21.03
2019-03-30T09:26:10.562Z,21.64
2019-03-30T09:27:10.544Z,21.91
2019-03-30T09:28:10.532Z,21.62
2019-03-30T09:29:10.513Z,21.84
2019-03-30T09:30:10.496Z,21.62
2019-03-30T09:31:10.478Z,21.75
2019-03-30T09:32:14.847Z,21.61
2019-03-30T09:33:10.450Z,21.79
2019-03-30T09:34:10.430Z,22.15
2019-03-30T09:35:10.412Z,21.67
2019-03-30T09:36:10.394Z,21.79
2019-03-30T09:37:10.386Z,21.52
2019-03-30T09:38:10.362Z,21.77
2019-03-30T09:39:10.347Z,22.33
2019-03-30T09:40:10.329Z,22.65
2019-03-30T09:41:10.322Z,22.92
2019-03-30T09:42:10.295Z,22.52
2019-03-30T09:43:10.278Z,22.72
2019-03-30T09:44:10.266Z,22.94
2019-03-30T09:45:10.248Z,22.25
2019-03-30T09:46:10.231Z,22.49
2019-03-30T09:47:10.218Z,22.43
2019-03-30T09:48:10.199Z,23.10
2019-03-30T09:49:10.183Z,23.75
2019-03-30T09:50:10.166Z,24.25
2019-03-30T09:51:10.151Z,23.97
2019-03-30T09:52:10.136Z,23.75
2019-03-30T09:53:10.119Z,23.40
2019-03-30T09:54:23.097Z,22.73
2019-03-30T09:55:10.089Z,22.67
2019-03-30T09:56:10.075Z,22.67
2019-03-30T09:57:10.057Z,22.98
2019-03-30T09:58:10.040Z,23.28
2019-03-30T09:59:10.027Z,23.00
2019-03-30T10:00:10.010Z,22.35
2019-03-30T10:01:09.995Z,22.07
2019-03-30T10:02:09.979Z,22.33
2019-03-30T10:03:09.969Z,22.58
2019-03-30T10:04:09.948Z,23.32
2019-03-30T10:05:09.931Z,23.79
2019-03-30T10:06:09.917Z,24.05
2019-03-30T10:07:09.900Z,24.31
2019-03-30T10:08:09.883Z,23.97
2019-03-30T10:09:09.870Z,24.03
2019-03-30T10:10:09.852Z,23.75
2019-03-30T10:11:09.845Z,23.80
2019-03-30T10:12:09.821Z,23.39
2019-03-30T10:13:09.804Z,22.76
2019-03-30T10:14:09.788Z,22.64
2019-03-30T10:15:09.774Z,22.65
2019-03-30T10:16:09.759Z,21.56
2019-03-30T10:17:09.743Z,21.62
2019-03-30T10:18:09.736Z,21.17
2019-03-30T10:19:09.711Z,21.14
2019-03-30T10:20:09.695Z,20.95
2019-03-30T10:21:09.679Z,22.00
2019-03-30T10:22:09.663Z,21.77
2019-03-30T10:23:09.647Z,21.64
2019-03-30T10:24:09.630Z,22.28
2019-03-30T10:25:09.615Z,21.94
2019-03-30T10:26:09.599Z,21.90
2019-03-30T10:27:09.582Z,22.22
2019-03-30T10:28:09.575Z,22.83
2019-03-30T10:29:09.547Z,22.98
2019-03-30T10:30:09.535Z,23.68
2019-03-30T10:31:09.515Z,23.75
2019-03-30T10:32:09.498Z,23.31
2019-03-30T10:33:09.485Z,22.73
2019-03-30T10:34:09.463Z,22.36
2019-03-30T10:35:09.458Z,21.88
2019-03-30T10:36:09.432Z,21.24
2019-03-30T10:37:09.417Z,21.04
2019-03-30T10:38:09.399Z,20.89
2019-03-30T10:39:09.382Z,20.73
2019-03-30T10:40:09.363Z,21.10
2019-03-30T10:41:09.347Z,21.44
2019-03-30T10:42:09.333Z,21.80
2019-03-30T10:43:09.313Z,22.30
2019-03-30T10:44:09.372Z,22.35
2019-03-30T10:45:09.278Z,22.51
2019-03-30T10:46:09.262Z,22.55
2019-03-30T10:47:09.244Z,22.52
2019-03-30T10:48:09.227Z,22.70
2019-03-30T10:49:09.209Z,23.42
2019-03-30T10:50:09.192Z,23.17
2019-03-30T10:51:09.175Z,23.27
2019-03-30T10:52:09.158Z,22.90
2019-03-30T10:53:09.140Z,21.99
2019-03-30T10:54:09.123Z,21.68
2019-03-30T10:55:09.108Z,21.94
2019-03-30T10:56:09.092Z,21.59
2019-03-30T10:57:09.071Z,21.96
2019-03-30T10:58:09.058Z,22.36
2019-03-30T10:59:09.038Z,22.54
2019-03-30T11:00:09.022Z,22.45
2019-03-30T11:01:09.003Z,22.61
2019-03-30T11:02:08.985Z,23.16
2019-03-30T11:03:08.970Z,23.73
2019-03-30T11:04:08.951Z,23.70
2019-03-30T11:05:08.935Z,24.05
2019-03-30T11:06:08.915Z,23.63
2019-03-30T11:07:08.900Z,23.27
2019-03-30T11:08:08.882Z,23.73
2019-03-30T11:09:08.864Z,23.31
2019-03-30T11:10:08.847Z,23.33
2019-03-30T11:11:08.831Z,23.00
2019-03-30T11:12:08.815Z,22.79
2019-03-30T11:13:08.797Z,22.67
2019-03-30T11:14:08.779Z,22.73
2019-03-30T11:15:08.762Z,22.33
2019-03-30T11:16:08.746Z,22.55
2019-03-30T11:17:08.727Z,22.30
2019-03-30T11:18:08.709Z,22.94
2019-03-30T11:19:08.743Z,23.22
2019-03-30T11:20:08.679Z,23.20
2019-03-30T11:21:08.656Z,23.79
2019-03-30T11:22:08.674Z,23.80
2019-03-30T11:23:08.627Z,23.12
2019-03-30T11:24:08.610Z,22.73
2019-03-30T11:25:09.210Z,22.18
2019-03-30T11:26:08.572Z,22.02
2019-03-30T11:27:08.554Z,22.51
2019-03-30T11:28:08.536Z,23.40
2019-03-30T11:29:08.517Z,23.85
2019-03-30T11:30:08.502Z,22.65
2019-03-30T11:31:08.483Z,22.33
2019-03-30T11:32:08.466Z,22.51
2019-03-30T11:33:08.448Z,22.36
2019-03-30T11:34:08.434Z,22.65
2019-03-30T11:35:08.415Z,22.31
2019-03-30T11:36:08.397Z,22.37
2019-03-30T11:37:08.378Z,22.07
2019-03-30T11:38:08.361Z,22.52
2019-03-30T11:39:08.342Z,23.33
2019-03-30T11:40:08.326Z,22.86
2019-03-30T11:41:08.306Z,22.83
2019-03-30T11:42:08.289Z,22.95
2019-03-30T11:43:08.273Z,22.57
2019-03-30T11:44:08.254Z,22.37
2019-03-30T11:45:08.235Z,22.92
2019-03-30T11:46:08.218Z,23.63
2019-03-30T11:47:08.199Z,23.55
2019-03-30T11:48:08.188Z,23.54
2019-03-30T11:49:08.164Z,23.02
2019-03-30T11:50:08.147Z,22.51
2019-03-30T11:51:08.130Z,22.60
2019-03-30T11:52:08.111Z,23.00
2019-03-30T11:53:08.092Z,23.53
2019-03-30T11:54:08.072Z,24.13
2019-03-30T11:55:20.871Z,24.47
2019-03-30T11:56:08.038Z,24.55
2019-03-30T11:57:08.020Z,24.77
2019-03-30T11:58:08.047Z,25.39
2019-03-30T11:59:07.985Z,24.84
2019-03-30T12:00:07.968Z,24.77
2019-03-30T12:01:07.948Z,23.76
2019-03-30T12:02:07.936Z,22.65
2019-03-30T12:03:07.916Z,22.39
2019-03-30T12:04:07.897Z,22.35
2019-03-30T12:05:07.878Z,22.98
2019-03-30T12:06:07.861Z,22.95
2019-03-30T12:07:07.843Z,23.04
2019-03-30T12:08:07.825Z,23.15
2019-03-30T12:09:07.806Z,22.95
2019-03-30T12:10:07.791Z,23.27
2019-03-30T12:11:07.771Z,23.04
2019-03-30T12:12:07.753Z,23.25
2019-03-30T12:13:07.736Z,23.47
2019-03-30T12:14:07.726Z,23.02
2019-03-30T12:15:07.709Z,22.82
2019-03-30T12:16:07.685Z,22.91
2019-03-30T12:17:07.663Z,22.92
2019-03-30T12:18:07.644Z,23.16
2019-03-30T12:19:07.628Z,23.01
2019-03-30T12:20:07.614Z,22.88
2019-03-30T12:21:07.591Z,23.15
2019-03-30T12:22:07.573Z,23.94
2019-03-30T12:23:07.557Z,23.97
2019-03-30T12:24:07.539Z,24.24
2019-03-30T12:25:07.520Z,23.75
2019-03-30T12:26:07.504Z,24.12
2019-03-30T12:27:07.485Z,24.47
2019-03-30T12:28:07.468Z,24.99
2019-03-30T12:29:07.449Z,24.68
2019-03-30T12:30:07.436Z,24.69
2019-03-30T12:31:07.413Z,24.71
2019-03-30T12:32:07.396Z,24.12
2019-03-30T12:33:07.377Z,23.84
2019-03-30T12:34:07.360Z,23.80
2019-03-30T12:35:07.341Z,24.18
2019-03-30T12:36:07.334Z,23.91
2019-03-30T12:37:07.307Z,23.79
2019-03-30T12:38:07.299Z,23.80
2019-03-30T12:39:07.278Z,23.87
2019-03-30T12:40:07.260Z,23.78
2019-03-30T12:41:07.235Z,24.24
2019-03-30T12:42:07.219Z,24.62
2019-03-30T12:43:07.201Z,24.78
2019-03-30T12:44:07.184Z,24.85
2019-03-30T12:45:07.167Z,24.32
2019-03-30T12:46:07.148Z,24.81
2019-03-30T12:47:10.259Z,24.95
2019-03-30T12:48:07.114Z,25.17
2019-03-30T12:49:07.095Z,24.83
2019-03-30T12:50:07.081Z,24.02
2019-03-30T12:51:07.060Z,23.97
2019-03-30T12:52:07.041Z,23.80
2019-03-30T12:53:07.022Z,24.45
2019-03-30T12:54:07.009Z,24.65
2019-03-30T12:55:06.987Z,25.18
2019-03-30T12:56:09.002Z,24.78
2019-03-30T12:57:06.952Z,25.18
2019-03-30T12:58:06.936Z,24.62
2019-03-30T12:59:06.916Z,24.16
2019-03-30T13:00:06.899Z,24.30
2019-03-30T13:01:06.880Z,24.98
2019-03-30T13:02:06.867Z,25.35
2019-03-30T13:03:06.848Z,25.30
2019-03-30T13:04:06.830Z,25.14